createdAt,value
2023-02-11T00:01:38.075Z,44.90
2023-02-11T00:04:07.934Z,52.13
2023-02-11T00:06:37.455Z,46.75
2023-02-11T00:09:06.877Z,42.83
2023-02-11T00:11:35.612Z,44.00
2023-02-11T00:14:08.744Z,43.58
2023-02-11T00:16:37.393Z,47.65
2023-02-11T00:19:06.473Z,39.95
2023-02-11T00:21:35.456Z,55.55
2023-02-11T00:24:04.218Z,50.45
2023-02-11T00:26:35.731Z,43.33
2023-02-11T00:29:06.164Z,42.75
2023-02-11T00:31:35.855Z,48.92
2023-02-11T00:34:06.955Z,46.25
2023-02-11T00:36:35.147Z,51.97
2023-02-11T00:39:03.969Z,50.00
2023-02-11T00:41:32.576Z,52.90
2023-02-11T00:44:02.401Z,45.38
2023-02-11T00:46:32.300Z,49.80
2023-02-11T00:49:00.925Z,44.78
2023-02-11T00:51:29.991Z,45.95
2023-02-11T00:53:58.199Z,46.60
2023-02-11T00:56:27.407Z,47.03
2023-02-11T00:58:57.853Z,49.47
2023-02-11T01:01:26.503Z,52.17
2023-02-11T01:03:56.146Z,47.47
2023-02-11T01:06:25.333Z,44.92
2023-02-11T01:08:53.837Z,55.58
2023-02-11T01:11:22.977Z,49.08
2023-02-11T01:13:52.045Z,49.28
2023-02-11T01:16:21.695Z,50.42
2023-02-11T01:18:50.491Z,45.22
2023-02-11T01:21:20.693Z,46.35
2023-02-11T01:23:49.245Z,48.03
2023-02-11T01:26:18.048Z,44.45
2023-02-11T01:28:46.797Z,37.90
2023-02-11T01:31:15.128Z,46.63
2023-02-11T01:33:43.650Z,39.42
2023-02-11T01:36:13.245Z,37.40
2023-02-11T01:38:44.389Z,47.40
2023-02-11T01:41:15.633Z,51.75
2023-02-11T01:43:47.451Z,47.45
2023-02-11T01:46:27.364Z,48.63
2023-02-11T01:49:00.980Z,42.42
2023-02-11T01:51:33.777Z,37.80
2023-02-11T01:54:27.598Z,50.45
2023-02-11T01:57:17.096Z,44.15
2023-02-11T01:59:52.864Z,39.97
2023-02-11T02:02:27.816Z,46.70
2023-02-11T02:05:09.108Z,45.60
2023-02-11T02:07:46.026Z,43.53
2023-02-11T02:10:22.683Z,54.55
2023-02-11T02:12:51.065Z,38.20
2023-02-11T02:15:30.980Z,45.17
2023-02-11T02:18:13.530Z,34.22
2023-02-11T02:21:30.726Z,44.58
2023-02-11T02:24:28.721Z,37.55
2023-02-11T02:27:40.916Z,38.70
2023-02-11T02:30:34.913Z,39.88
2023-02-11T02:33:31.492Z,40.50
2023-02-11T02:36:13.752Z,38.00
2023-02-11T02:38:49.509Z,35.05
2023-02-11T02:41:22.291Z,40.90
2023-02-11T02:43:52.547Z,36.47
2023-02-11T02:46:24.307Z,32.42
2023-02-11T02:48:55.778Z,46.42
2023-02-11T02:52:13.730Z,38.80
2023-02-11T02:55:23.178Z,34.85
2023-02-11T02:58:21.231Z,43.58
2023-02-11T03:01:01.103Z,48.70
2023-02-11T03:03:42.818Z,44.92
2023-02-11T03:06:18.985Z,36.17
2023-02-11T03:08:53.067Z,52.13
2023-02-11T03:11:22.972Z,46.00
2023-02-11T03:13:53.659Z,41.03
2023-02-11T03:16:26.819Z,36.85
2023-02-11T03:19:03.106Z,32.75
2023-02-11T03:21:35.270Z,43.05
2023-02-11T03:24:09.388Z,46.45
2023-02-11T03:26:44.084Z,38.10
2023-02-11T03:29:19.565Z,43.35
2023-02-11T03:31:57.266Z,46.00
2023-02-11T03:34:33.274Z,41.78
2023-02-11T03:37:08.779Z,36.33
2023-02-11T03:39:41.996Z,39.22
2023-02-11T03:42:13.868Z,45.15
2023-02-11T03:44:49.079Z,41.63
2023-02-11T03:47:22.051Z,47.40
2023-02-11T03:49:52.819Z,48.97
2023-02-11T03:52:25.707Z,37.28
2023-02-11T03:54:59.143Z,42.58
2023-02-11T03:57:27.495Z,48.10
2023-02-11T03:59:58.116Z,42.05
2023-02-11T04:02:30.775Z,42.80
2023-02-11T04:04:59.913Z,43.60
2023-02-11T04:07:30.325Z,52.05
2023-02-11T04:09:59.025Z,45.28
2023-02-11T04:12:27.585Z,38.95
2023-02-11T04:14:56.122Z,32.22
2023-02-11T04:17:24.658Z,49.85
2023-02-11T04:19:53.188Z,43.42
2023-02-11T04:22:21.685Z,48.40
2023-02-11T04:24:51.272Z,39.80
2023-02-11T04:27:19.785Z,47.13
2023-02-11T04:29:48.363Z,43.72
2023-02-11T04:32:17.110Z,36.45
2023-02-11T04:34:45.608Z,55.30
2023-02-11T04:37:13.969Z,47.85
2023-02-11T04:39:43.188Z,58.50
2023-02-11T04:42:12.795Z,50.90
2023-02-11T04:44:41.306Z,36.53
2023-02-11T04:47:09.515Z,43.58
2023-02-11T04:49:38.141Z,46.97
2023-02-11T04:52:06.820Z,50.72
2023-02-11T04:54:35.324Z,35.65
2023-02-11T04:57:03.987Z,43.10
2023-02-11T04:59:33.574Z,42.78
2023-02-11T05:02:02.205Z,40.78
2023-02-11T05:04:30.849Z,38.38
2023-02-11T05:06:59.447Z,40.28
2023-02-11T05:09:27.638Z,43.25
2023-02-11T05:11:55.867Z,38.05
2023-02-11T05:14:24.388Z,38.15
2023-02-11T05:16:54.084Z,40.28
2023-02-11T05:19:22.581Z,44.15
2023-02-11T05:22:02.161Z,40.25
2023-02-11T05:24:31.516Z,35.58
2023-02-11T05:27:00.072Z,34.80
2023-02-11T05:29:28.820Z,44.83
2023-02-11T05:32:00.819Z,42.92
2023-02-11T05:34:29.568Z,50.58
2023-02-11T05:36:58.099Z,48.70
2023-02-11T05:39:26.696Z,45.55
2023-02-11T05:41:55.259Z,45.10
2023-02-11T05:44:23.872Z,46.35
2023-02-11T05:46:52.408Z,49.35
2023-02-11T05:49:21.994Z,49.28
2023-02-11T05:51:50.644Z,52.70
2023-02-11T05:54:19.145Z,37.90
2023-02-11T05:56:47.630Z,41.92
2023-02-11T05:59:16.403Z,39.80
2023-02-11T06:01:45.472Z,44.92
2023-02-11T06:04:13.991Z,48.45
2023-02-11T06:06:43.618Z,41.20
2023-02-11T06:09:12.292Z,45.90
2023-02-11T06:11:40.798Z,41.17
2023-02-11T06:14:09.878Z,49.05
2023-02-11T06:16:38.261Z,52.40
2023-02-11T06:19:06.947Z,44.97
2023-02-11T06:21:43.251Z,45.22
2023-02-11T06:24:13.767Z,51.28
2023-02-11T06:26:42.308Z,49.08
2023-02-11T06:29:10.903Z,38.35
2023-02-11T06:31:39.781Z,44.20
2023-02-11T06:34:09.265Z,49.80
2023-02-11T06:36:39.450Z,41.75
2023-02-11T06:39:08.065Z,52.78
2023-02-11T06:41:37.727Z,47.25
2023-02-11T06:44:06.542Z,45.50
2023-02-11T06:46:35.332Z,45.30
2023-02-11T06:49:03.832Z,44.40
2023-02-11T06:51:32.346Z,51.05
2023-02-11T06:54:00.842Z,45.42
2023-02-11T06:56:30.292Z,55.38
2023-02-11T06:58:59.928Z,42.85
2023-02-11T07:01:29.194Z,43.92
2023-02-11T07:03:57.816Z,50.58
2023-02-11T07:06:29.045Z,50.72
2023-02-11T07:08:57.939Z,41.15
2023-02-11T07:11:29.843Z,46.90
2023-02-11T07:14:05.245Z,41.20
2023-02-11T07:16:34.396Z,37.53
2023-02-11T07:19:02.643Z,47.95
2023-02-11T07:21:31.602Z,49.67
2023-02-11T07:24:00.137Z,49.15
2023-02-11T07:26:28.922Z,43.80
2023-02-11T07:28:59.257Z,45.85
2023-02-11T07:31:29.970Z,38.67
2023-02-11T07:34:01.048Z,58.35
2023-02-11T07:36:31.827Z,42.42
2023-02-11T07:39:01.070Z,47.88
2023-02-11T07:41:29.379Z,49.50
2023-02-11T07:43:59.294Z,39.10
2023-02-11T07:46:28.894Z,47.20
2023-02-11T07:48:57.411Z,43.22
2023-02-11T07:51:28.603Z,46.47
2023-02-11T07:53:59.063Z,48.55
2023-02-11T07:56:28.337Z,49.50
2023-02-11T07:58:57.811Z,45.97
2023-02-11T08:01:28.575Z,48.42
2023-02-11T08:03:58.162Z,39.83
2023-02-11T08:06:29.487Z,43.83
2023-02-11T08:08:58.100Z,37.22
2023-02-11T08:11:28.984Z,46.97
2023-02-11T08:13:58.089Z,42.90
2023-02-11T08:16:30.804Z,44.03
2023-02-11T08:19:02.128Z,39.75
2023-02-11T08:21:31.196Z,38.65
2023-02-11T08:23:59.750Z,45.97
2023-02-11T08:26:31.718Z,34.20
2023-02-11T08:29:00.602Z,38.85
2023-02-11T08:31:34.216Z,42.42
2023-02-11T08:34:03.054Z,34.67
2023-02-11T08:36:34.157Z,39.95
2023-02-11T08:39:18.014Z,35.22
2023-02-11T08:41:48.685Z,34.78
2023-02-11T08:44:17.604Z,44.38
2023-02-11T08:46:47.387Z,45.53
2023-02-11T08:49:16.281Z,45.58
2023-02-11T08:51:45.402Z,38.47
2023-02-11T08:54:14.213Z,35.50
2023-02-11T08:56:43.013Z,35.17
2023-02-11T08:59:17.647Z,33.53
2023-02-11T09:01:47.761Z,38.63
2023-02-11T09:04:16.281Z,32.88
2023-02-11T09:06:45.055Z,36.72
2023-02-11T09:09:16.542Z,35.55
2023-02-11T09:11:45.620Z,38.22
2023-02-11T09:14:19.670Z,39.10
2023-02-11T09:16:50.079Z,35.17
2023-02-11T09:19:19.282Z,39.92
2023-02-11T09:21:47.602Z,31.63
2023-02-11T09:24:16.275Z,34.17
2023-02-11T09:26:45.174Z,36.17
2023-02-11T09:29:14.334Z,37.33
2023-02-11T09:31:43.002Z,32.63
2023-02-11T09:34:13.327Z,33.35
2023-02-11T09:36:42.761Z,30.65
2023-02-11T09:39:15.353Z,38.70
2023-02-11T09:42:20.179Z,34.30
2023-02-11T09:44:48.769Z,36.67
2023-02-11T09:47:29.177Z,26.73
2023-02-11T09:50:04.613Z,34.97
2023-02-11T09:52:42.676Z,37.40
2023-02-11T09:55:22.006Z,32.13
2023-02-11T09:57:50.744Z,30.08
2023-02-11T10:00:23.646Z,36.47
2023-02-11T10:03:24.855Z,40.70
2023-02-11T10:06:29.586Z,36.13
2023-02-11T10:09:12.663Z,29.92
2023-02-11T10:11:50.704Z,31.73
2023-02-11T10:14:43.695Z,32.35
2023-02-11T10:17:26.425Z,36.85
2023-02-11T10:20:17.122Z,34.72
2023-02-11T10:22:50.338Z,35.72
2023-02-11T10:25:25.714Z,29.63
2023-02-11T10:27:57.904Z,31.50
2023-02-11T10:30:32.555Z,34.38
2023-02-11T10:33:13.474Z,38.10
2023-02-11T10:35:43.754Z,29.25
2023-02-11T10:38:13.646Z,28.90
2023-02-11T10:40:42.388Z,25.20
2023-02-11T10:43:14.705Z,34.17
2023-02-11T10:45:47.252Z,29.73
2023-02-11T10:48:43.225Z,30.40
2023-02-11T10:51:20.455Z,27.95
2023-02-11T10:53:54.401Z,29.88
2023-02-11T10:56:27.668Z,32.43
2023-02-11T10:59:00.972Z,34.17
2023-02-11T11:01:44.587Z,28.13
2023-02-11T11:04:44.970Z,35.72
2023-02-11T11:07:24.107Z,29.95
2023-02-11T11:09:59.577Z,33.88
2023-02-11T11:12:36.304Z,32.22
2023-02-11T11:15:20.055Z,32.85
2023-02-11T11:17:48.959Z,28.50
2023-02-11T11:20:24.768Z,32.97
2023-02-11T11:23:08.542Z,31.20
2023-02-11T11:25:42.626Z,28.73
2023-02-11T11:28:24.888Z,38.38
2023-02-11T11:30:55.685Z,30.95
2023-02-11T11:33:28.640Z,38.35
2023-02-11T11:36:01.530Z,30.42
2023-02-11T11:38:33.082Z,30.02
2023-02-11T11:41:26.927Z,31.83
2023-02-11T11:44:09.351Z,27.83
2023-02-11T11:46:42.167Z,34.97
2023-02-11T11:49:26.720Z,30.02
2023-02-11T11:52:10.414Z,30.15
2023-02-11T11:54:41.138Z,31.90
2023-02-11T11:57:17.412Z,28.45
2023-02-11T11:59:46.429Z,35.38
2023-02-11T12:02:53.376Z,27.25
2023-02-11T12:05:28.836Z,34.53
2023-02-11T12:08:09.129Z,23.23
2023-02-11T12:11:10.604Z,32.42
2023-02-11T12:13:54.490Z,33.65
2023-02-11T12:16:37.194Z,33.22
2023-02-11T12:19:56.604Z,30.25
2023-02-11T12:22:40.034Z,30.02
2023-02-11T12:25:27.345Z,27.40
2023-02-11T12:28:12.567Z,27.95
2023-02-11T12:30:58.115Z,26.98
2023-02-11T12:33:50.739Z,24.45
2023-02-11T12:36:32.143Z,26.08
2023-02-11T12:39:19.045Z,35.08
2023-02-11T12:42:51.521Z,33.92
2023-02-11T12:45:36.008Z,30.80
2023-02-11T12:48:39.577Z,31.15
2023-02-11T12:51:23.199Z,30.20
2023-02-11T12:54:19.478Z,30.85
2023-02-11T12:56:55.353Z,35.60
2023-02-11T12:59:41.257Z,32.20
2023-02-11T13:02:22.810Z,26.70
2023-02-11T13:04:58.275Z,32.10
2023-02-11T13:07:34.193Z,26.63
2023-02-11T13:10:26.072Z,34.28
2023-02-11T13:13:16.550Z,29.00
2023-02-11T13:15:48.631Z,29.60
2023-02-11T13:18:48.238Z,26.33
2023-02-11T13:21:45.099Z,29.08
2023-02-11T13:24:25.226Z,23.60
2023-02-11T13:27:06.249Z,22.00
2023-02-11T13:30:06.199Z,34.17
2023-02-11T13:33:06.534Z,26.17
2023-02-11T13:35:36.984Z,28.80
2023-02-11T13:38:18.559Z,21.48
2023-02-11T13:40:58.582Z,26.25
2023-02-11T13:43:29.442Z,29.65
2023-02-11T13:46:00.920Z,30.42
2023-02-11T13:48:32.662Z,30.10
2023-02-11T13:51:04.573Z,26.63
2023-02-11T13:53:48.886Z,29.33
2023-02-11T13:56:30.087Z,29.42
2023-02-11T13:59:01.864Z,28.30
2023-02-11T14:02:23.669Z,26.00
2023-02-11T14:05:40.444Z,28.75
2023-02-11T14:08:42.901Z,24.25
2023-02-11T14:11:51.146Z,24.58
2023-02-11T14:14:24.438Z,25.35
2023-02-11T14:17:30.877Z,25.98
2023-02-11T14:20:00.363Z,19.50
2023-02-11T14:22:32.743Z,24.88
2023-02-11T14:25:03.071Z,23.30
2023-02-11T14:27:42.042Z,22.88
2023-02-11T14:30:50.689Z,17.27
2023-02-11T14:33:50.255Z,23.58
2023-02-11T14:36:46.405Z,24.45
2023-02-11T14:39:26.479Z,21.30
2023-02-11T14:41:55.756Z,27.35
2023-02-11T14:44:30.934Z,22.90
2023-02-11T14:46:59.590Z,32.28
2023-02-11T14:49:32.508Z,26.15
2023-02-11T14:52:07.901Z,32.67
2023-02-11T14:54:36.846Z,23.55
2023-02-11T14:57:12.709Z,30.42
2023-02-11T14:59:58.855Z,22.38
2023-02-11T15:02:33.992Z,25.17
2023-02-11T15:05:26.053Z,30.13
2023-02-11T15:07:57.336Z,25.35
2023-02-11T15:10:33.950Z,25.52
2023-02-11T15:13:04.547Z,30.25
2023-02-11T15:15:36.468Z,26.05
2023-02-11T15:18:06.593Z,21.67
2023-02-11T15:20:35.842Z,31.08
2023-02-11T15:23:10.025Z,23.83
2023-02-11T15:25:45.717Z,27.98
2023-02-11T15:28:24.269Z,27.30
2023-02-11T15:31:02.583Z,28.25
2023-02-11T15:33:32.277Z,27.40
2023-02-11T15:36:03.403Z,25.65
2023-02-11T15:38:31.792Z,28.63
2023-02-11T15:41:02.413Z,30.70
2023-02-11T15:43:46.237Z,21.50
2023-02-11T15:46:19.890Z,22.08
2023-02-11T15:48:51.597Z,25.25
2023-02-11T15:51:25.120Z,26.45
2023-02-11T15:53:58.409Z,21.40
2023-02-11T15:56:32.856Z,22.80
2023-02-11T15:59:12.981Z,28.48
2023-02-11T16:01:43.174Z,22.88
2023-02-11T16:04:19.211Z,23.45
2023-02-11T16:06:48.773Z,29.30
2023-02-11T16:09:31.257Z,20.27
2023-02-11T16:12:03.480Z,16.95
2023-02-11T16:14:36.973Z,27.98
2023-02-11T16:17:09.671Z,26.75
2023-02-11T16:19:44.779Z,23.92
2023-02-11T16:22:18.873Z,28.38
2023-02-11T16:24:50.982Z,26.08
2023-02-11T16:27:24.979Z,24.88
2023-02-11T16:29:53.817Z,25.92
2023-02-11T16:32:26.334Z,37.15
2023-02-11T16:34:57.828Z,33.22
2023-02-11T16:37:26.674Z,26.95
2023-02-11T16:39:55.278Z,34.13
2023-02-11T16:42:23.588Z,32.33
2023-02-11T16:44:51.862Z,32.58
2023-02-11T16:47:27.504Z,30.63
2023-02-11T16:49:57.211Z,29.23
2023-02-11T16:52:26.461Z,30.42
2023-02-11T16:54:55.093Z,30.55
2023-02-11T16:57:28.820Z,29.42
2023-02-11T16:59:58.996Z,27.02
2023-02-11T17:02:31.400Z,28.95
2023-02-11T17:05:02.751Z,24.30
2023-02-11T17:07:31.461Z,28.65
2023-02-11T17:10:00.307Z,28.08
2023-02-11T17:12:29.031Z,22.40
2023-02-11T17:14:57.588Z,24.77
2023-02-11T17:17:26.121Z,35.17
2023-02-11T17:19:55.642Z,31.40
2023-02-11T17:22:24.229Z,25.20
2023-02-11T17:24:52.974Z,24.90
2023-02-11T17:27:21.199Z,27.45
2023-02-11T17:29:49.751Z,24.63
2023-02-11T17:32:18.396Z,26.02
2023-02-11T17:34:47.144Z,23.65
2023-02-11T17:37:16.862Z,22.85
2023-02-11T17:39:45.046Z,31.85
2023-02-11T17:42:14.737Z,20.13
2023-02-11T17:44:44.318Z,23.48
2023-02-11T17:47:12.703Z,24.75
2023-02-11T17:49:41.300Z,30.35
2023-02-11T17:52:10.148Z,27.75
2023-02-11T17:54:39.811Z,35.15
2023-02-11T17:57:08.328Z,24.42
2023-02-11T17:59:36.851Z,30.23
2023-02-11T18:02:05.809Z,24.23
2023-02-11T18:04:34.404Z,22.08
2023-02-11T18:07:02.743Z,24.83
2023-02-11T18:09:31.027Z,23.40
2023-02-11T18:12:00.590Z,23.25
2023-02-11T18:14:29.130Z,33.53
2023-02-11T18:16:57.692Z,22.15
2023-02-11T18:19:30.415Z,34.80
2023-02-11T18:22:00.961Z,37.90
2023-02-11T18:24:29.431Z,41.00
2023-02-11T18:26:57.935Z,44.95
2023-02-11T18:29:27.825Z,45.30
2023-02-11T18:31:57.681Z,56.85
2023-02-11T18:34:27.132Z,55.92
2023-02-11T18:36:55.702Z,50.25
2023-02-11T18:39:26.431Z,48.10
2023-02-11T18:41:56.799Z,53.88
2023-02-11T18:44:26.785Z,49.65
2023-02-11T18:46:55.140Z,54.33
2023-02-11T18:49:23.409Z,46.97
2023-02-11T18:51:52.180Z,32.00
2023-02-11T18:54:20.725Z,31.58
2023-02-11T18:56:49.003Z,36.53
2023-02-11T18:59:17.627Z,42.00
2023-02-11T19:01:47.436Z,45.58
2023-02-11T19:04:19.716Z,44.03
2023-02-11T19:06:49.880Z,40.08
2023-02-11T19:09:21.142Z,42.20
2023-02-11T19:11:54.017Z,34.55
2023-02-11T19:14:24.872Z,40.25
2023-02-11T19:16:59.041Z,34.97
2023-02-11T19:19:31.119Z,28.92
2023-02-11T19:22:01.046Z,33.88
2023-02-11T19:24:30.618Z,34.28
2023-02-11T19:27:01.262Z,35.47
2023-02-11T19:29:32.014Z,33.60
2023-02-11T19:32:02.459Z,36.47
2023-02-11T19:34:30.824Z,36.50
2023-02-11T19:37:01.562Z,34.47
2023-02-11T19:39:30.227Z,42.47
2023-02-11T19:41:58.572Z,33.45
2023-02-11T19:44:27.198Z,33.47
2023-02-11T19:46:55.388Z,40.05
2023-02-11T19:49:26.290Z,34.03
2023-02-11T19:51:57.351Z,35.10
2023-02-11T19:54:27.286Z,33.65
2023-02-11T19:56:55.788Z,33.10
2023-02-11T19:59:24.328Z,31.30
2023-02-11T20:01:53.752Z,32.08
2023-02-11T20:04:25.016Z,33.78
2023-02-11T20:06:53.618Z,34.38
2023-02-11T20:09:22.765Z,28.60
2023-02-11T20:11:51.386Z,36.22
2023-02-11T20:14:19.677Z,31.83
2023-02-11T20:16:49.967Z,24.20
2023-02-11T20:19:22.366Z,28.25
2023-02-11T20:21:55.595Z,27.17
2023-02-11T20:24:26.720Z,29.35
2023-02-11T20:26:56.427Z,31.80
2023-02-11T20:29:25.664Z,29.70
2023-02-11T20:31:54.559Z,25.80
2023-02-11T20:34:23.210Z,34.13
2023-02-11T20:36:53.058Z,30.95
2023-02-11T20:39:22.919Z,43.33
2023-02-11T20:41:52.302Z,29.88
2023-02-11T20:44:22.579Z,37.35
2023-02-11T20:46:52.013Z,31.80
2023-02-11T20:49:23.650Z,35.05
2023-02-11T20:51:53.789Z,30.52
2023-02-11T20:54:24.158Z,39.95
2023-02-11T20:56:53.870Z,34.75
2023-02-11T20:59:23.175Z,40.15
2023-02-11T21:01:55.272Z,30.60
2023-02-11T21:04:26.791Z,31.25
2023-02-11T21:06:58.655Z,28.40
2023-02-11T21:09:30.561Z,34.95
2023-02-11T21:11:59.236Z,30.88
2023-02-11T21:14:29.865Z,31.00
2023-02-11T21:16:58.917Z,27.02
2023-02-11T21:19:27.404Z,34.22
2023-02-11T21:22:00.466Z,36.10
2023-02-11T21:24:30.729Z,35.00
2023-02-11T21:26:59.404Z,34.42
2023-02-11T21:29:29.273Z,34.80
2023-02-11T21:31:57.948Z,31.17
2023-02-11T21:34:26.168Z,35.50
2023-02-11T21:36:55.993Z,32.33
2023-02-11T21:39:24.578Z,36.80
2023-02-11T21:41:53.266Z,34.00
2023-02-11T21:44:21.567Z,41.88
2023-02-11T21:46:50.210Z,36.20
2023-02-11T21:49:19.633Z,30.83
2023-02-11T21:51:48.132Z,30.73
2023-02-11T21:54:18.706Z,33.95
2023-02-11T21:56:47.188Z,31.88
2023-02-11T21:59:16.386Z,39.33
2023-02-11T22:01:47.047Z,37.20
2023-02-11T22:04:15.319Z,37.30
2023-02-11T22:06:44.759Z,40.03
2023-02-11T22:09:13.039Z,42.00
2023-02-11T22:11:42.596Z,31.67
2023-02-11T22:14:11.108Z,31.17
2023-02-11T22:16:39.937Z,27.92
2023-02-11T22:19:08.606Z,31.65
2023-02-11T22:21:37.421Z,36.88
2023-02-11T22:24:06.549Z,37.60
2023-02-11T22:26:35.092Z,31.40
2023-02-11T22:29:04.783Z,35.00
2023-02-11T22:31:35.530Z,39.45
2023-02-11T22:34:05.750Z,44.35
2023-02-11T22:36:36.791Z,34.17
2023-02-11T22:39:08.776Z,35.75
2023-02-11T22:41:38.284Z,34.88
2023-02-11T22:44:08.302Z,37.80
2023-02-11T22:46:36.649Z,43.75
2023-02-11T22:49:05.575Z,34.53
2023-02-11T22:51:34.098Z,34.35
2023-02-11T22:54:03.871Z,32.97
2023-02-11T22:56:34.779Z,32.55
2023-02-11T22:59:06.192Z,42.83
2023-02-11T23:01:36.498Z,36.75
2023-02-11T23:04:07.910Z,36.95
2023-02-11T23:06:36.738Z,33.40
2023-02-11T23:09:05.666Z,46.58
2023-02-11T23:11:34.470Z,44.00
2023-02-11T23:14:03.799Z,42.15
2023-02-11T23:16:35.748Z,44.50
2023-02-11T23:19:07.232Z,35.97
2023-02-11T23:21:37.997Z,34.85
2023-02-11T23:24:11.566Z,39.53
2023-02-11T23:26:42.545Z,39.10
2023-02-11T23:29:11.427Z,42.58
2023-02-11T23:31:45.878Z,39.00
2023-02-11T23:34:17.108Z,47.88
2023-02-11T23:36:45.634Z,35.83
2023-02-11T23:39:15.548Z,52.88
2023-02-11T23:41:44.743Z,38.15
2023-02-11T23:44:13.311Z,37.53
2023-02-11T23:46:42.900Z,39.60
2023-02-11T23:49:11.466Z,39.33
2023-02-11T23:51:40.081Z,46.03
2023-02-11T23:54:08.583Z,35.72
2023-02-11T23:56:39.994Z,52.55
2023-02-11T23:59:08.687Z,45.05
